RYR7048 LMML-LIEE
Flight info
| Callsign | RYR7048 |
|---|---|
| Flight time | 1h 6m |
| Altitude | 36000 |
| Route | GZO M622 SOPIR DCT ADEXI DCT ADAMI M871 NEVOT |
| Aircraft | B738/M-SDE2E3FGHIRWXY/LB1 |
Departure
| Time | 2026-05-08 14:14 |
|---|---|
| Airport | Malta International Airport (LMML) |
Arrival
| Time | 2026-05-08 15:21 |
|---|---|
| Airport | Cagliari Elmas Airport (LIEE) |
| Time | Latitude | Longitude | Altitude | Speed | Heading |
|---|---|---|---|---|---|
| 2026-05-08 13:43 | 35.84808 | 14.49513 | 257 ft | 0 kts | 0° |
| 2026-05-08 14:05 | 35.84791 | 14.49513 | 257 ft | 2 kts | 360° |
| 2026-05-08 14:06 | 35.84775 | 14.49513 | 257 ft | 2 kts | 8° |
| 2026-05-08 14:06 | 35.84763 | 14.49502 | 257 ft | 2 kts | 86° |
| 2026-05-08 14:06 | 35.84766 | 14.49482 | 257 ft | 2 kts | 119° |
| 2026-05-08 14:06 | 35.84770 | 14.49474 | 257 ft | 0 kts | 130° |
| 2026-05-08 14:07 | 35.84770 | 14.49473 | 257 ft | 0 kts | 130° |
| 2026-05-08 14:08 | 35.84770 | 14.49474 | 257 ft | 1 kts | 131° |
| 2026-05-08 14:09 | 35.84754 | 14.49493 | 257 ft | 6 kts | 135° |
| 2026-05-08 14:09 | 35.84712 | 14.49543 | 257 ft | 11 kts | 137° |
| 2026-05-08 14:09 | 35.84635 | 14.49579 | 256 ft | 12 kts | 192° |
| 2026-05-08 14:09 | 35.84562 | 14.49533 | 257 ft | 12 kts | 172° |
| 2026-05-08 14:10 | 35.84496 | 14.49596 | 256 ft | 12 kts | 146° |
| 2026-05-08 14:10 | 35.84413 | 14.49643 | 255 ft | 14 kts | 163° |
| 2026-05-08 14:10 | 35.84319 | 14.49675 | 255 ft | 14 kts | 164° |
| 2026-05-08 14:10 | 35.84230 | 14.49708 | 254 ft | 13 kts | 157° |
| 2026-05-08 14:11 | 35.84146 | 14.49761 | 253 ft | 15 kts | 147° |
| 2026-05-08 14:11 | 35.84053 | 14.49850 | 251 ft | 18 kts | 134° |
| 2026-05-08 14:11 | 35.83966 | 14.49958 | 251 ft | 17 kts | 134° |
| 2026-05-08 14:11 | 35.83880 | 14.50064 | 250 ft | 18 kts | 135° |
| 2026-05-08 14:12 | 35.83785 | 14.50180 | 251 ft | 19 kts | 135° |
| 2026-05-08 14:12 | 35.83678 | 14.50313 | 249 ft | 24 kts | 134° |
| 2026-05-08 14:12 | 35.83576 | 14.50467 | 248 ft | 23 kts | 111° |
| 2026-05-08 14:12 | 35.83535 | 14.50650 | 246 ft | 20 kts | 104° |
| 2026-05-08 14:13 | 35.83470 | 14.50743 | 245 ft | 15 kts | 185° |
| 2026-05-08 14:13 | 35.83437 | 14.50632 | 245 ft | 15 kts | 269° |
| 2026-05-08 14:13 | 35.83496 | 14.50538 | 246 ft | 14 kts | 315° |
| 2026-05-08 14:13 | 35.83616 | 14.50390 | 249 ft | 51 kts | 315° |
| 2026-05-08 14:14 | 35.84030 | 14.49878 | 251 ft | 115 kts | 315° |
| 2026-05-08 14:14 | 35.84720 | 14.49032 | 272 ft | 164 kts | 317° |
| 2026-05-08 14:14 | 35.85550 | 14.47994 | 807 ft | 164 kts | 314° |
| 2026-05-08 14:14 | 35.86299 | 14.46927 | 1492 ft | 166 kts | 310° |
| 2026-05-08 14:15 | 35.87032 | 14.45822 | 2272 ft | 168 kts | 307° |
| 2026-05-08 14:15 | 35.87810 | 14.44603 | 2655 ft | 196 kts | 307° |
| 2026-05-08 14:15 | 35.88715 | 14.43214 | 2906 ft | 220 kts | 307° |
| 2026-05-08 14:15 | 35.89730 | 14.41657 | 3133 ft | 247 kts | 306° |
| 2026-05-08 14:16 | 35.90842 | 14.39945 | 3642 ft | 261 kts | 305° |
| 2026-05-08 14:16 | 35.91981 | 14.38201 | 4491 ft | 263 kts | 304° |
| 2026-05-08 14:16 | 35.93128 | 14.36452 | 5318 ft | 264 kts | 304° |
| 2026-05-08 14:16 | 35.94282 | 14.34716 | 6296 ft | 259 kts | 303° |
| 2026-05-08 14:17 | 35.95428 | 14.32994 | 7112 ft | 261 kts | 303° |
| 2026-05-08 14:17 | 35.96589 | 14.31243 | 7817 ft | 265 kts | 304° |
| 2026-05-08 14:17 | 35.97752 | 14.29490 | 8571 ft | 268 kts | 304° |
| 2026-05-08 14:17 | 35.98942 | 14.27694 | 9354 ft | 270 kts | 304° |
| 2026-05-08 14:18 | 36.00139 | 14.25887 | 10105 ft | 273 kts | 304° |
| 2026-05-08 14:18 | 36.01374 | 14.24015 | 10423 ft | 292 kts | 304° |
| 2026-05-08 14:18 | 36.02710 | 14.21984 | 10617 ft | 315 kts | 304° |
| 2026-05-08 14:18 | 36.04201 | 14.19947 | 11053 ft | 331 kts | 314° |
| 2026-05-08 14:19 | 36.06070 | 14.18211 | 11752 ft | 337 kts | 320° |
| 2026-05-08 14:19 | 36.08003 | 14.16546 | 12530 ft | 337 kts | 320° |
| 2026-05-08 14:19 | 36.09940 | 14.14889 | 13270 ft | 339 kts | 320° |
| 2026-05-08 14:19 | 36.11868 | 14.13229 | 13958 ft | 342 kts | 320° |
| 2026-05-08 14:20 | 36.13828 | 14.11526 | 14608 ft | 344 kts | 320° |
| 2026-05-08 14:20 | 36.15792 | 14.09808 | 15300 ft | 346 kts | 320° |
| 2026-05-08 14:20 | 36.17758 | 14.08079 | 16010 ft | 348 kts | 320° |
| 2026-05-08 14:20 | 36.19735 | 14.06333 | 16695 ft | 350 kts | 320° |
| 2026-05-08 14:21 | 36.21724 | 14.04573 | 17355 ft | 353 kts | 320° |
| 2026-05-08 14:21 | 36.23706 | 14.02818 | 18013 ft | 355 kts | 320° |
| 2026-05-08 14:21 | 36.25723 | 14.01028 | 18614 ft | 358 kts | 320° |
| 2026-05-08 14:21 | 36.27761 | 13.99219 | 19176 ft | 361 kts | 320° |
| 2026-05-08 14:22 | 36.29812 | 13.97397 | 19737 ft | 364 kts | 320° |
| 2026-05-08 14:22 | 36.31856 | 13.95579 | 20290 ft | 367 kts | 320° |
| 2026-05-08 14:22 | 36.33938 | 13.93728 | 20853 ft | 369 kts | 320° |
| 2026-05-08 14:22 | 36.36035 | 13.91862 | 21409 ft | 372 kts | 320° |
| 2026-05-08 14:23 | 36.38149 | 13.89979 | 21942 ft | 375 kts | 320° |
| 2026-05-08 14:23 | 36.40278 | 13.88082 | 22466 ft | 378 kts | 320° |
| 2026-05-08 14:23 | 36.42428 | 13.86164 | 23011 ft | 381 kts | 320° |
| 2026-05-08 14:23 | 36.44574 | 13.84250 | 23635 ft | 380 kts | 320° |
| 2026-05-08 14:24 | 36.46727 | 13.82328 | 24076 ft | 383 kts | 320° |
| 2026-05-08 14:24 | 36.48905 | 13.80380 | 24441 ft | 387 kts | 320° |
| 2026-05-08 14:24 | 36.51073 | 13.78440 | 24816 ft | 390 kts | 319° |
| 2026-05-08 14:24 | 36.53290 | 13.76452 | 25229 ft | 393 kts | 319° |
| 2026-05-08 14:25 | 36.55520 | 13.74450 | 25635 ft | 395 kts | 319° |
| 2026-05-08 14:25 | 36.57760 | 13.72438 | 26026 ft | 398 kts | 319° |
| 2026-05-08 14:25 | 36.59984 | 13.70438 | 26398 ft | 401 kts | 319° |
| 2026-05-08 14:25 | 36.62262 | 13.68388 | 26770 ft | 403 kts | 319° |
| 2026-05-08 14:26 | 36.64546 | 13.66331 | 27125 ft | 406 kts | 319° |
| 2026-05-08 14:26 | 36.66849 | 13.64256 | 27485 ft | 409 kts | 319° |
| 2026-05-08 14:26 | 36.69162 | 13.62171 | 27862 ft | 411 kts | 319° |
| 2026-05-08 14:26 | 36.71459 | 13.60099 | 28238 ft | 413 kts | 319° |
| 2026-05-08 14:27 | 36.73800 | 13.57985 | 28595 ft | 415 kts | 319° |
| 2026-05-08 14:27 | 36.75360 | 13.56575 | 28812 ft | 417 kts | 319° |
| 2026-05-08 14:27 | 36.78489 | 13.53745 | 29251 ft | 420 kts | 319° |
| 2026-05-08 14:27 | 36.80095 | 13.52292 | 29545 ft | 420 kts | 319° |
| 2026-05-08 14:28 | 36.82432 | 13.50178 | 30052 ft | 418 kts | 318° |
| 2026-05-08 14:28 | 36.84791 | 13.48043 | 30531 ft | 415 kts | 318° |
| 2026-05-08 14:28 | 36.87098 | 13.45953 | 30983 ft | 412 kts | 318° |
| 2026-05-08 14:28 | 36.89423 | 13.43843 | 31360 ft | 412 kts | 318° |
| 2026-05-08 14:29 | 36.91753 | 13.41726 | 31713 ft | 412 kts | 318° |
| 2026-05-08 14:29 | 36.94069 | 13.39619 | 32102 ft | 411 kts | 318° |
| 2026-05-08 14:29 | 36.96377 | 13.37520 | 32556 ft | 408 kts | 318° |
| 2026-05-08 14:29 | 36.98660 | 13.35443 | 33079 ft | 404 kts | 318° |
| 2026-05-08 14:30 | 37.00908 | 13.33395 | 33470 ft | 403 kts | 317° |
| 2026-05-08 14:30 | 37.03178 | 13.31324 | 33780 ft | 403 kts | 317° |
| 2026-05-08 14:30 | 37.05447 | 13.29252 | 34097 ft | 403 kts | 317° |
| 2026-05-08 14:30 | 37.07713 | 13.27182 | 34445 ft | 401 kts | 317° |
| 2026-05-08 14:31 | 37.09961 | 13.25128 | 34805 ft | 398 kts | 317° |
| 2026-05-08 14:31 | 37.12169 | 13.23109 | 35114 ft | 397 kts | 317° |
| 2026-05-08 14:31 | 37.14404 | 13.21062 | 35388 ft | 397 kts | 317° |
| 2026-05-08 14:32 | 37.18864 | 13.16974 | 35974 ft | 395 kts | 317° |
| 2026-05-08 14:32 | 37.21076 | 13.14943 | 35956 ft | 400 kts | 317° |
| 2026-05-08 14:32 | 37.25571 | 13.10814 | 35985 ft | 396 kts | 317° |
| 2026-05-08 14:33 | 37.29956 | 13.06785 | 35980 ft | 390 kts | 317° |
| 2026-05-08 14:33 | 37.34291 | 13.02686 | 35981 ft | 387 kts | 312° |
| 2026-05-08 14:34 | 37.37868 | 12.97752 | 35984 ft | 380 kts | 304° |
| 2026-05-08 14:34 | 37.41256 | 12.92675 | 35987 ft | 381 kts | 305° |
| 2026-05-08 14:35 | 37.44688 | 12.87551 | 35985 ft | 383 kts | 305° |
| 2026-05-08 14:35 | 37.48137 | 12.82411 | 35985 ft | 384 kts | 305° |
| 2026-05-08 14:36 | 37.51573 | 12.77290 | 35990 ft | 385 kts | 304° |
| 2026-05-08 14:36 | 37.55032 | 12.72127 | 35988 ft | 385 kts | 304° |
| 2026-05-08 14:37 | 37.58498 | 12.66947 | 35986 ft | 385 kts | 304° |
| 2026-05-08 14:37 | 37.61929 | 12.61811 | 35990 ft | 385 kts | 304° |
| 2026-05-08 14:38 | 37.65375 | 12.56644 | 35987 ft | 384 kts | 304° |
| 2026-05-08 14:38 | 37.68808 | 12.51488 | 35991 ft | 383 kts | 304° |
| 2026-05-08 14:39 | 37.72229 | 12.46342 | 35993 ft | 382 kts | 304° |
| 2026-05-08 14:39 | 37.75622 | 12.41230 | 35992 ft | 381 kts | 304° |
| 2026-05-08 14:40 | 37.79028 | 12.36090 | 35991 ft | 380 kts | 304° |
| 2026-05-08 14:40 | 37.82402 | 12.30989 | 35995 ft | 379 kts | 303° |
| 2026-05-08 14:41 | 37.85784 | 12.25870 | 35994 ft | 378 kts | 303° |
| 2026-05-08 14:41 | 37.89158 | 12.20753 | 35994 ft | 377 kts | 303° |
| 2026-05-08 14:42 | 37.92505 | 12.15670 | 35998 ft | 377 kts | 303° |
| 2026-05-08 14:42 | 37.95873 | 12.10548 | 35996 ft | 377 kts | 303° |
| 2026-05-08 14:43 | 37.99220 | 12.05447 | 35987 ft | 377 kts | 303° |
| 2026-05-08 14:43 | 38.02583 | 12.00317 | 36006 ft | 377 kts | 303° |
| 2026-05-08 14:44 | 38.05927 | 11.95206 | 36006 ft | 378 kts | 303° |
| 2026-05-08 14:44 | 38.09296 | 11.90049 | 36007 ft | 379 kts | 303° |
| 2026-05-08 14:45 | 38.12641 | 11.84921 | 36004 ft | 379 kts | 303° |
| 2026-05-08 14:45 | 38.16007 | 11.79753 | 35994 ft | 379 kts | 303° |
| 2026-05-08 14:46 | 38.19370 | 11.74581 | 35997 ft | 379 kts | 303° |
| 2026-05-08 14:46 | 38.22734 | 11.69399 | 35999 ft | 379 kts | 302° |
| 2026-05-08 14:47 | 38.26091 | 11.64220 | 36011 ft | 379 kts | 302° |
| 2026-05-08 14:47 | 38.29423 | 11.59070 | 36000 ft | 379 kts | 302° |
| 2026-05-08 14:48 | 38.32787 | 11.53863 | 36046 ft | 379 kts | 302° |
| 2026-05-08 14:48 | 38.36128 | 11.48683 | 36014 ft | 380 kts | 302° |
| 2026-05-08 14:49 | 38.39489 | 11.43464 | 36004 ft | 380 kts | 302° |
| 2026-05-08 14:49 | 38.42821 | 11.38281 | 36006 ft | 380 kts | 302° |
| 2026-05-08 14:50 | 38.46174 | 11.33058 | 36007 ft | 379 kts | 302° |
| 2026-05-08 14:50 | 38.49479 | 11.27907 | 35738 ft | 373 kts | 302° |
| 2026-05-08 14:51 | 38.51108 | 11.25367 | 35469 ft | 366 kts | 302° |
| 2026-05-08 14:51 | 38.52718 | 11.22852 | 35083 ft | 362 kts | 302° |
| 2026-05-08 14:51 | 38.54306 | 11.20366 | 34720 ft | 359 kts | 302° |
| 2026-05-08 14:51 | 38.55861 | 11.17930 | 34362 ft | 356 kts | 302° |
| 2026-05-08 14:52 | 38.57430 | 11.15469 | 34005 ft | 354 kts | 302° |
| 2026-05-08 14:52 | 38.60504 | 11.10643 | 33228 ft | 349 kts | 302° |
| 2026-05-08 14:52 | 38.62035 | 11.08237 | 32840 ft | 347 kts | 302° |
| 2026-05-08 14:53 | 38.63555 | 11.05846 | 32471 ft | 344 kts | 302° |
| 2026-05-08 14:53 | 38.65060 | 11.03478 | 32110 ft | 342 kts | 302° |
| 2026-05-08 14:53 | 38.66556 | 11.01124 | 31756 ft | 339 kts | 302° |
| 2026-05-08 14:53 | 38.68039 | 10.98788 | 31407 ft | 337 kts | 302° |
| 2026-05-08 14:54 | 38.69500 | 10.96445 | 31058 ft | 333 kts | 299° |
| 2026-05-08 14:54 | 38.70690 | 10.93977 | 30668 ft | 327 kts | 292° |
| 2026-05-08 14:54 | 38.71597 | 10.91282 | 29994 ft | 332 kts | 287° |
| 2026-05-08 14:54 | 38.72401 | 10.88496 | 29455 ft | 333 kts | 287° |
| 2026-05-08 14:55 | 38.73198 | 10.85700 | 29005 ft | 331 kts | 287° |
| 2026-05-08 14:55 | 38.73984 | 10.82938 | 28629 ft | 328 kts | 287° |
| 2026-05-08 14:55 | 38.74752 | 10.80243 | 28280 ft | 325 kts | 287° |
| 2026-05-08 14:55 | 38.75526 | 10.77538 | 27913 ft | 321 kts | 287° |
| 2026-05-08 14:56 | 38.76292 | 10.74861 | 27570 ft | 318 kts | 287° |
| 2026-05-08 14:56 | 38.77052 | 10.72210 | 27225 ft | 315 kts | 287° |
| 2026-05-08 14:56 | 38.77802 | 10.69591 | 26888 ft | 312 kts | 287° |
| 2026-05-08 14:56 | 38.78548 | 10.66989 | 26556 ft | 309 kts | 287° |
| 2026-05-08 14:57 | 38.79285 | 10.64414 | 26219 ft | 306 kts | 287° |
| 2026-05-08 14:57 | 38.80017 | 10.61857 | 25891 ft | 304 kts | 287° |
| 2026-05-08 14:57 | 38.80742 | 10.59320 | 25567 ft | 301 kts | 287° |
| 2026-05-08 14:57 | 38.81460 | 10.56806 | 25251 ft | 299 kts | 286° |
| 2026-05-08 14:58 | 38.82173 | 10.54309 | 24933 ft | 297 kts | 286° |
| 2026-05-08 14:58 | 38.82871 | 10.51857 | 24619 ft | 295 kts | 286° |
| 2026-05-08 14:58 | 38.83574 | 10.49390 | 24301 ft | 293 kts | 286° |
| 2026-05-08 14:58 | 38.84271 | 10.46941 | 23990 ft | 292 kts | 286° |
| 2026-05-08 14:59 | 38.84965 | 10.44500 | 23678 ft | 290 kts | 286° |
| 2026-05-08 14:59 | 38.86341 | 10.39651 | 22970 ft | 287 kts | 286° |
| 2026-05-08 14:59 | 38.87012 | 10.37285 | 22658 ft | 284 kts | 286° |
| 2026-05-08 15:00 | 38.87687 | 10.34906 | 22362 ft | 281 kts | 286° |
| 2026-05-08 15:00 | 38.88352 | 10.32559 | 22043 ft | 279 kts | 286° |
| 2026-05-08 15:00 | 38.89011 | 10.30228 | 21746 ft | 276 kts | 286° |
| 2026-05-08 15:00 | 38.89665 | 10.27913 | 21436 ft | 274 kts | 286° |
| 2026-05-08 15:01 | 38.90303 | 10.25649 | 21162 ft | 272 kts | 286° |
| 2026-05-08 15:01 | 38.90946 | 10.23371 | 20859 ft | 270 kts | 286° |
| 2026-05-08 15:01 | 38.91584 | 10.21103 | 20565 ft | 269 kts | 286° |
| 2026-05-08 15:01 | 38.92220 | 10.18847 | 20281 ft | 268 kts | 285° |
| 2026-05-08 15:02 | 38.92856 | 10.16584 | 19988 ft | 270 kts | 285° |
| 2026-05-08 15:02 | 38.93488 | 10.14330 | 19700 ft | 274 kts | 285° |
| 2026-05-08 15:02 | 38.94147 | 10.11974 | 19403 ft | 284 kts | 286° |
| 2026-05-08 15:02 | 38.94822 | 10.09565 | 19090 ft | 287 kts | 286° |
| 2026-05-08 15:03 | 38.95500 | 10.07148 | 18767 ft | 286 kts | 286° |
| 2026-05-08 15:03 | 38.96165 | 10.04779 | 18458 ft | 285 kts | 286° |
| 2026-05-08 15:03 | 38.96835 | 10.02386 | 18122 ft | 284 kts | 286° |
| 2026-05-08 15:03 | 38.97503 | 10.00000 | 17778 ft | 282 kts | 286° |
| 2026-05-08 15:04 | 38.98165 | 9.97630 | 17456 ft | 280 kts | 286° |
| 2026-05-08 15:04 | 38.98825 | 9.95267 | 17137 ft | 279 kts | 286° |
| 2026-05-08 15:04 | 38.99468 | 9.92958 | 16825 ft | 277 kts | 286° |
| 2026-05-08 15:04 | 39.00116 | 9.90633 | 16535 ft | 275 kts | 286° |
| 2026-05-08 15:05 | 39.00761 | 9.88316 | 16241 ft | 273 kts | 287° |
| 2026-05-08 15:05 | 39.01401 | 9.86012 | 15932 ft | 272 kts | 287° |
| 2026-05-08 15:05 | 39.02028 | 9.83756 | 15641 ft | 271 kts | 287° |
| 2026-05-08 15:05 | 39.02661 | 9.81476 | 15331 ft | 270 kts | 287° |
| 2026-05-08 15:06 | 39.03292 | 9.79201 | 15029 ft | 269 kts | 287° |
| 2026-05-08 15:06 | 39.03921 | 9.76931 | 14726 ft | 269 kts | 287° |
| 2026-05-08 15:06 | 39.04565 | 9.74602 | 14118 ft | 280 kts | 287° |
| 2026-05-08 15:06 | 39.05215 | 9.72257 | 13698 ft | 283 kts | 287° |
| 2026-05-08 15:07 | 39.05874 | 9.69878 | 13362 ft | 281 kts | 287° |
| 2026-05-08 15:07 | 39.06529 | 9.67514 | 13030 ft | 280 kts | 287° |
| 2026-05-08 15:07 | 39.07180 | 9.65160 | 12718 ft | 278 kts | 287° |
| 2026-05-08 15:07 | 39.07826 | 9.62822 | 12418 ft | 276 kts | 287° |
| 2026-05-08 15:08 | 39.08467 | 9.60500 | 12125 ft | 274 kts | 287° |
| 2026-05-08 15:08 | 39.08890 | 9.58970 | 11918 ft | 273 kts | 287° |
| 2026-05-08 15:08 | 39.09737 | 9.55894 | 11528 ft | 271 kts | 287° |
| 2026-05-08 15:08 | 39.10367 | 9.53606 | 11233 ft | 270 kts | 287° |
| 2026-05-08 15:09 | 39.10992 | 9.51332 | 10940 ft | 269 kts | 287° |
| 2026-05-08 15:09 | 39.11641 | 9.49072 | 10607 ft | 270 kts | 289° |
| 2026-05-08 15:09 | 39.12327 | 9.46820 | 10317 ft | 269 kts | 289° |
| 2026-05-08 15:09 | 39.13007 | 9.44616 | 10139 ft | 264 kts | 289° |
| 2026-05-08 15:10 | 39.13677 | 9.42442 | 9938 ft | 261 kts | 289° |
| 2026-05-08 15:10 | 39.14343 | 9.40268 | 9644 ft | 260 kts | 289° |
| 2026-05-08 15:10 | 39.15006 | 9.38100 | 9350 ft | 260 kts | 289° |
| 2026-05-08 15:10 | 39.15665 | 9.35939 | 9071 ft | 258 kts | 289° |
| 2026-05-08 15:11 | 39.16320 | 9.33789 | 8797 ft | 257 kts | 290° |
| 2026-05-08 15:11 | 39.16970 | 9.31650 | 8525 ft | 256 kts | 290° |
| 2026-05-08 15:11 | 39.17617 | 9.29517 | 8258 ft | 255 kts | 290° |
| 2026-05-08 15:11 | 39.18263 | 9.27390 | 7988 ft | 254 kts | 290° |
| 2026-05-08 15:12 | 39.18903 | 9.25276 | 7722 ft | 253 kts | 290° |
| 2026-05-08 15:12 | 39.19541 | 9.23168 | 7448 ft | 252 kts | 290° |
| 2026-05-08 15:12 | 39.20179 | 9.21059 | 7188 ft | 252 kts | 291° |
| 2026-05-08 15:12 | 39.20813 | 9.18961 | 6941 ft | 256 kts | 291° |
| 2026-05-08 15:13 | 39.21668 | 9.16946 | 6647 ft | 260 kts | 312° |
| 2026-05-08 15:13 | 39.23026 | 9.15400 | 6420 ft | 260 kts | 321° |
| 2026-05-08 15:13 | 39.24456 | 9.13959 | 6150 ft | 261 kts | 322° |
| 2026-05-08 15:13 | 39.25896 | 9.12524 | 5856 ft | 260 kts | 322° |
| 2026-05-08 15:14 | 39.26847 | 9.11578 | 5671 ft | 260 kts | 322° |
| 2026-05-08 15:14 | 39.28274 | 9.10157 | 5389 ft | 258 kts | 322° |
| 2026-05-08 15:14 | 39.29696 | 9.08739 | 5126 ft | 257 kts | 322° |
| 2026-05-08 15:14 | 39.31115 | 9.07323 | 4850 ft | 257 kts | 322° |
| 2026-05-08 15:15 | 39.32521 | 9.05920 | 4650 ft | 252 kts | 322° |
| 2026-05-08 15:15 | 39.33889 | 9.04553 | 4542 ft | 243 kts | 322° |
| 2026-05-08 15:15 | 39.35177 | 9.03264 | 4426 ft | 230 kts | 322° |
| 2026-05-08 15:15 | 39.36417 | 9.02023 | 4159 ft | 220 kts | 322° |
| 2026-05-08 15:16 | 39.37600 | 9.00835 | 3901 ft | 210 kts | 322° |
| 2026-05-08 15:16 | 39.38733 | 8.99696 | 3637 ft | 202 kts | 322° |
| 2026-05-08 15:16 | 39.39827 | 8.98591 | 3390 ft | 196 kts | 322° |
| 2026-05-08 15:16 | 39.40760 | 8.97379 | 3120 ft | 194 kts | 298° |
| 2026-05-08 15:17 | 39.40984 | 8.95697 | 2872 ft | 193 kts | 259° |
| 2026-05-08 15:17 | 39.40331 | 8.94207 | 2628 ft | 196 kts | 220° |
| 2026-05-08 15:17 | 39.39082 | 8.93541 | 2404 ft | 198 kts | 187° |
| 2026-05-08 15:17 | 39.37712 | 8.93391 | 2169 ft | 197 kts | 182° |
| 2026-05-08 15:18 | 39.36394 | 8.93798 | 2088 ft | 201 kts | 144° |
| 2026-05-08 15:18 | 39.35333 | 8.94972 | 2091 ft | 203 kts | 142° |
| 2026-05-08 15:18 | 39.34135 | 8.95902 | 1988 ft | 200 kts | 154° |
| 2026-05-08 15:18 | 39.32870 | 8.96679 | 1765 ft | 201 kts | 150° |
| 2026-05-08 15:19 | 39.31765 | 8.97771 | 1436 ft | 199 kts | 140° |
| 2026-05-08 15:19 | 39.30756 | 8.98909 | 1220 ft | 187 kts | 136° |
| 2026-05-08 15:19 | 39.29863 | 9.00003 | 1058 ft | 169 kts | 137° |
| 2026-05-08 15:19 | 39.29022 | 9.00967 | 888 ft | 155 kts | 139° |
| 2026-05-08 15:20 | 39.28245 | 9.01857 | 707 ft | 143 kts | 139° |
| 2026-05-08 15:20 | 39.27483 | 9.02732 | 494 ft | 146 kts | 140° |
| 2026-05-08 15:20 | 39.26748 | 9.03573 | 260 ft | 138 kts | 139° |
| 2026-05-08 15:20 | 39.26042 | 9.04395 | 42 ft | 135 kts | 140° |
| 2026-05-08 15:21 | 39.25414 | 9.05120 | 18 ft | 102 kts | 138° |
| 2026-05-08 15:21 | 39.24998 | 9.05602 | 19 ft | 58 kts | 138° |
| 2026-05-08 15:21 | 39.24809 | 9.05821 | 18 ft | 15 kts | 139° |
| 2026-05-08 15:21 | 39.24764 | 9.05873 | 17 ft | 13 kts | 139° |
| 2026-05-08 15:22 | 39.24685 | 9.05989 | 16 ft | 18 kts | 111° |
| 2026-05-08 15:22 | 39.24715 | 9.06131 | 17 ft | 14 kts | 56° |
| 2026-05-08 15:22 | 39.24793 | 9.06114 | 17 ft | 13 kts | 319° |
| 2026-05-08 15:22 | 39.24860 | 9.06037 | 17 ft | 13 kts | 318° |
| 2026-05-08 15:23 | 39.24926 | 9.05962 | 17 ft | 12 kts | 318° |
| 2026-05-08 15:23 | 39.24989 | 9.05888 | 17 ft | 12 kts | 317° |
| 2026-05-08 15:23 | 39.25052 | 9.05815 | 19 ft | 11 kts | 318° |
| 2026-05-08 15:23 | 39.25119 | 9.05778 | 18 ft | 11 kts | 24° |
| 2026-05-08 15:24 | 39.25158 | 9.05855 | 17 ft | 6 kts | 75° |
| 2026-05-08 15:24 | 39.25143 | 9.05902 | 17 ft | 6 kts | 105° |
| 2026-05-08 15:24 | 39.25162 | 9.05951 | 18 ft | 7 kts | 51° |
| 2026-05-08 15:24 | 39.25192 | 9.06000 | 17 ft | 7 kts | 51° |
| 2026-05-08 15:25 | 39.25236 | 9.06016 | 17 ft | 7 kts | 341° |
| 2026-05-08 15:25 | 39.25272 | 9.05987 | 17 ft | 0 kts | 319° |